CCA280 VHHH-PANC
Flight info
| Callsign | CCA280 |
|---|---|
| Flight time | N/A |
| Altitude | 37000 |
| Route | DALOL V631 ENVAR M750 MOLKA/N0484F390 M750 MOMPA Y451 HKC Y45 OOITA Y40 MYE Y33 LABEL Y121 SWING Y88 DAIGO Y889 PUTER A590 PASRO/N0497F410 A590 HAMND NEELL7 |
| Aircraft | A359/H-SDE2E3GHIJ3J4J5LM1ORWXY/LB1D1 |
Departure
| Time | 2026-04-30 06:24 |
|---|---|
| Airport | Hong Kong International Airport (VHHH) |
Arrival
| Time | N/A |
|---|---|
| Airport | Ted Stevens Anchorage International Airport (PANC) |
| Time | Latitude | Longitude | Altitude | Speed | Heading |
|---|---|---|---|---|---|
| 2026-04-30 06:11 | 22.31437 | 113.92925 | 42 ft | 0 kts | 161° |
| 2026-04-30 06:13 | 22.31447 | 113.92922 | 39 ft | 2 kts | 159° |
| 2026-04-30 06:13 | 22.31462 | 113.92915 | 40 ft | 2 kts | 159° |
| 2026-04-30 06:14 | 22.31477 | 113.92909 | 37 ft | 2 kts | 157° |
| 2026-04-30 06:14 | 22.31492 | 113.92902 | 39 ft | 2 kts | 152° |
| 2026-04-30 06:14 | 22.31505 | 113.92893 | 39 ft | 2 kts | 144° |
| 2026-04-30 06:14 | 22.31517 | 113.92881 | 40 ft | 2 kts | 98° |
| 2026-04-30 06:15 | 22.31516 | 113.92871 | 40 ft | 0 kts | 68° |
| 2026-04-30 06:16 | 22.31527 | 113.92902 | 38 ft | 10 kts | 64° |
| 2026-04-30 06:16 | 22.31585 | 113.92921 | 41 ft | 11 kts | 352° |
| 2026-04-30 06:16 | 22.31693 | 113.92883 | 41 ft | 22 kts | 340° |
| 2026-04-30 06:16 | 22.31830 | 113.92826 | 41 ft | 4 kts | 339° |
| 2026-04-30 06:17 | 22.31835 | 113.92824 | 41 ft | 3 kts | 339° |
| 2026-04-30 06:17 | 22.31882 | 113.92803 | 41 ft | 9 kts | 338° |
| 2026-04-30 06:17 | 22.31941 | 113.92778 | 41 ft | 10 kts | 339° |
| 2026-04-30 06:17 | 22.31948 | 113.92775 | 41 ft | 8 kts | 343° |
| 2026-04-30 06:18 | 22.31897 | 113.92792 | 41 ft | 6 kts | 342° |
| 2026-04-30 06:18 | 22.31894 | 113.92793 | 41 ft | 0 kts | 342° |
| 2026-04-30 06:19 | 22.31915 | 113.92786 | 41 ft | 9 kts | 342° |
| 2026-04-30 06:20 | 22.31946 | 113.92775 | 41 ft | 3 kts | 341° |
| 2026-04-30 06:20 | 22.32010 | 113.92751 | 41 ft | 16 kts | 341° |
| 2026-04-30 06:20 | 22.32148 | 113.92700 | 41 ft | 25 kts | 341° |
| 2026-04-30 06:20 | 22.32266 | 113.92611 | 41 ft | 18 kts | 275° |
| 2026-04-30 06:21 | 22.32257 | 113.92492 | 41 ft | 12 kts | 294° |
| 2026-04-30 06:21 | 22.32339 | 113.92434 | 42 ft | 18 kts | 340° |
| 2026-04-30 06:21 | 22.32506 | 113.92369 | 42 ft | 32 kts | 341° |
| 2026-04-30 06:21 | 22.32723 | 113.92287 | 42 ft | 33 kts | 340° |
| 2026-04-30 06:22 | 22.32939 | 113.92205 | 42 ft | 32 kts | 340° |
| 2026-04-30 06:22 | 22.33143 | 113.92127 | 42 ft | 32 kts | 340° |
| 2026-04-30 06:22 | 22.33206 | 113.92020 | 42 ft | 15 kts | 256° |
| 2026-04-30 06:22 | 22.33172 | 113.91910 | 42 ft | 17 kts | 248° |
| 2026-04-30 06:23 | 22.33143 | 113.91767 | 42 ft | 15 kts | 291° |
| 2026-04-30 06:23 | 22.33196 | 113.91731 | 42 ft | 11 kts | 338° |
| 2026-04-30 06:23 | 22.33275 | 113.91664 | 42 ft | 16 kts | 283° |
| 2026-04-30 06:23 | 22.33232 | 113.91540 | 42 ft | 27 kts | 250° |
| 2026-04-30 06:24 | 22.33102 | 113.91129 | 42 ft | 89 kts | 251° |
| 2026-04-30 06:24 | 22.32842 | 113.90309 | 42 ft | 141 kts | 250° |
| 2026-04-30 06:24 | 22.32471 | 113.89152 | 116 ft | 179 kts | 256° |
| 2026-04-30 06:24 | 22.32048 | 113.87933 | 831 ft | 172 kts | 250° |
| 2026-04-30 06:25 | 22.31521 | 113.86717 | 1249 ft | 189 kts | 246° |
| 2026-04-30 06:25 | 22.30856 | 113.85369 | 1413 ft | 217 kts | 244° |
| 2026-04-30 06:25 | 22.30151 | 113.83843 | 1786 ft | 235 kts | 246° |
| 2026-04-30 06:25 | 22.29452 | 113.82228 | 2318 ft | 245 kts | 248° |
| 2026-04-30 06:26 | 22.28737 | 113.80529 | 3078 ft | 245 kts | 247° |
| 2026-04-30 06:26 | 22.28036 | 113.78846 | 3788 ft | 246 kts | 248° |
| 2026-04-30 06:26 | 22.27345 | 113.77178 | 4598 ft | 240 kts | 247° |
| 2026-04-30 06:26 | 22.26672 | 113.75551 | 5440 ft | 233 kts | 248° |
| 2026-04-30 06:27 | 22.25910 | 113.73994 | 6091 ft | 239 kts | 236° |
| 2026-04-30 06:27 | 22.24677 | 113.72759 | 6683 ft | 245 kts | 217° |
| 2026-04-30 06:27 | 22.23216 | 113.71791 | 7333 ft | 248 kts | 211° |
| 2026-04-30 06:27 | 22.21547 | 113.71245 | 7995 ft | 257 kts | 187° |
| 2026-04-30 06:28 | 22.19754 | 113.71537 | 8619 ft | 267 kts | 165° |
| 2026-04-30 06:28 | 22.18009 | 113.72295 | 8950 ft | 272 kts | 160° |
| 2026-04-30 06:28 | 22.16275 | 113.73127 | 9022 ft | 273 kts | 160° |
| 2026-04-30 06:28 | 22.14566 | 113.73941 | 9025 ft | 274 kts | 160° |
| 2026-04-30 06:29 | 22.12790 | 113.74806 | 9017 ft | 276 kts | 156° |
| 2026-04-30 06:29 | 22.11197 | 113.75979 | 9030 ft | 289 kts | 145° |
| 2026-04-30 06:29 | 22.09602 | 113.77386 | 9027 ft | 300 kts | 143° |
| 2026-04-30 06:29 | 22.07998 | 113.78844 | 9030 ft | 303 kts | 142° |
| 2026-04-30 06:30 | 22.06665 | 113.80616 | 9186 ft | 311 kts | 117° |
| 2026-04-30 06:30 | 22.06012 | 113.82857 | 9735 ft | 315 kts | 104° |
| 2026-04-30 06:30 | 22.05562 | 113.85158 | 10332 ft | 321 kts | 103° |
| 2026-04-30 06:30 | 22.05098 | 113.87595 | 10639 ft | 337 kts | 103° |
| 2026-04-30 06:31 | 22.04606 | 113.90130 | 10900 ft | 353 kts | 103° |
| 2026-04-30 06:31 | 22.04088 | 113.92774 | 11167 ft | 368 kts | 103° |
| 2026-04-30 06:31 | 22.03548 | 113.95517 | 11401 ft | 382 kts | 103° |
| 2026-04-30 06:31 | 22.02983 | 113.98367 | 11643 ft | 394 kts | 103° |
| 2026-04-30 06:32 | 22.02401 | 114.01295 | 11946 ft | 404 kts | 103° |
| 2026-04-30 06:32 | 22.01816 | 114.04234 | 12344 ft | 409 kts | 103° |
| 2026-04-30 06:32 | 22.01216 | 114.07246 | 12789 ft | 413 kts | 103° |
| 2026-04-30 06:32 | 22.00609 | 114.10286 | 13232 ft | 417 kts | 103° |
| 2026-04-30 06:33 | 21.99757 | 114.13274 | 13671 ft | 418 kts | 115° |
| 2026-04-30 06:33 | 21.98480 | 114.16104 | 14089 ft | 421 kts | 119° |
| 2026-04-30 06:33 | 21.97559 | 114.17999 | 14356 ft | 423 kts | 120° |
| 2026-04-30 06:33 | 21.96187 | 114.20803 | 14779 ft | 425 kts | 120° |
| 2026-04-30 06:34 | 21.94825 | 114.23604 | 15186 ft | 428 kts | 119° |
| 2026-04-30 06:34 | 21.93441 | 114.26452 | 15611 ft | 430 kts | 120° |
| 2026-04-30 06:34 | 21.92049 | 114.29316 | 16002 ft | 433 kts | 119° |
| 2026-04-30 06:34 | 21.90646 | 114.32207 | 16411 ft | 435 kts | 119° |
| 2026-04-30 06:35 | 21.89240 | 114.35105 | 16811 ft | 438 kts | 119° |
| 2026-04-30 06:35 | 21.87824 | 114.38022 | 17205 ft | 441 kts | 119° |
| 2026-04-30 06:35 | 21.86403 | 114.40953 | 17650 ft | 442 kts | 120° |
| 2026-04-30 06:35 | 21.85030 | 114.43929 | 18046 ft | 445 kts | 115° |
| 2026-04-30 06:36 | 21.84042 | 114.47065 | 18398 ft | 449 kts | 107° |
| 2026-04-30 06:36 | 21.83201 | 114.50312 | 18725 ft | 452 kts | 107° |
| 2026-04-30 06:36 | 21.82368 | 114.53594 | 19064 ft | 454 kts | 107° |
| 2026-04-30 06:36 | 21.81530 | 114.56880 | 19391 ft | 457 kts | 107° |
| 2026-04-30 06:37 | 21.80679 | 114.60194 | 19718 ft | 459 kts | 107° |
| 2026-04-30 06:37 | 21.79821 | 114.63511 | 20005 ft | 458 kts | 108° |
| 2026-04-30 06:37 | 21.78946 | 114.66821 | 20104 ft | 462 kts | 107° |
| 2026-04-30 06:37 | 21.78095 | 114.70129 | 20443 ft | 464 kts | 107° |
| 2026-04-30 06:38 | 21.77234 | 114.73477 | 20793 ft | 466 kts | 107° |
| 2026-04-30 06:38 | 21.76365 | 114.76843 | 21120 ft | 468 kts | 107° |
| 2026-04-30 06:38 | 21.75487 | 114.80230 | 21454 ft | 471 kts | 107° |
| 2026-04-30 06:38 | 21.74680 | 114.83652 | 21786 ft | 474 kts | 102° |
| 2026-04-30 06:39 | 21.74308 | 114.87186 | 22125 ft | 477 kts | 94° |
| 2026-04-30 06:39 | 21.74190 | 114.90762 | 22448 ft | 480 kts | 91° |
| 2026-04-30 06:39 | 21.74191 | 114.94371 | 22799 ft | 482 kts | 90° |
| 2026-04-30 06:39 | 21.74237 | 114.97991 | 23129 ft | 485 kts | 89° |
| 2026-04-30 06:40 | 21.74289 | 115.01639 | 23482 ft | 487 kts | 90° |
| 2026-04-30 06:40 | 21.74328 | 115.05244 | 23777 ft | 489 kts | 90° |
| 2026-04-30 06:40 | 21.74350 | 115.08910 | 24060 ft | 491 kts | 90° |
| 2026-04-30 06:40 | 21.74359 | 115.12592 | 24343 ft | 493 kts | 90° |
| 2026-04-30 06:41 | 21.74358 | 115.16295 | 24637 ft | 495 kts | 90° |
| 2026-04-30 06:41 | 21.74353 | 115.19942 | 24933 ft | 497 kts | 91° |
| 2026-04-30 06:41 | 21.74347 | 115.23692 | 25264 ft | 499 kts | 90° |
| 2026-04-30 06:41 | 21.74342 | 115.27403 | 25610 ft | 501 kts | 91° |
| 2026-04-30 06:42 | 21.74333 | 115.31238 | 25968 ft | 503 kts | 91° |
| 2026-04-30 06:42 | 21.74321 | 115.35023 | 26304 ft | 506 kts | 91° |
| 2026-04-30 06:42 | 21.74309 | 115.38773 | 26657 ft | 508 kts | 91° |
| 2026-04-30 06:42 | 21.74298 | 115.42595 | 26990 ft | 511 kts | 91° |
| 2026-04-30 06:43 | 21.74285 | 115.46428 | 27329 ft | 514 kts | 91° |
| 2026-04-30 06:43 | 21.74273 | 115.50281 | 27671 ft | 517 kts | 91° |
| 2026-04-30 06:43 | 21.74260 | 115.54154 | 28004 ft | 519 kts | 91° |
| 2026-04-30 06:43 | 21.74246 | 115.58049 | 28335 ft | 522 kts | 91° |
| 2026-04-30 06:44 | 21.74231 | 115.61970 | 28668 ft | 525 kts | 91° |
| 2026-04-30 06:44 | 21.74217 | 115.65910 | 28967 ft | 527 kts | 91° |
| 2026-04-30 06:44 | 21.74201 | 115.69868 | 29237 ft | 531 kts | 91° |
| 2026-04-30 06:44 | 21.74185 | 115.73797 | 29526 ft | 533 kts | 91° |
| 2026-04-30 06:45 | 21.74167 | 115.77791 | 29829 ft | 535 kts | 91° |
| 2026-04-30 06:45 | 21.74149 | 115.81803 | 30102 ft | 538 kts | 91° |
| 2026-04-30 06:45 | 21.74129 | 115.85831 | 30327 ft | 540 kts | 91° |
| 2026-04-30 06:45 | 21.74108 | 115.89872 | 30550 ft | 542 kts | 91° |
| 2026-04-30 06:46 | 21.74086 | 115.93932 | 30791 ft | 543 kts | 91° |
| 2026-04-30 06:46 | 21.74063 | 115.97990 | 31125 ft | 542 kts | 91° |
| 2026-04-30 06:46 | 21.74040 | 116.02054 | 31474 ft | 541 kts | 91° |
| 2026-04-30 06:46 | 21.74015 | 116.06100 | 31812 ft | 540 kts | 91° |
| 2026-04-30 06:47 | 21.73990 | 116.10145 | 32143 ft | 539 kts | 91° |
| 2026-04-30 06:47 | 21.73963 | 116.14173 | 32455 ft | 538 kts | 91° |
| 2026-04-30 06:47 | 21.73936 | 116.18197 | 32779 ft | 538 kts | 91° |
| 2026-04-30 06:47 | 21.73907 | 116.22164 | 33093 ft | 537 kts | 91° |
| 2026-04-30 06:48 | 21.73878 | 116.26183 | 33404 ft | 536 kts | 91° |
| 2026-04-30 06:48 | 21.73848 | 116.30171 | 33872 ft | 531 kts | 91° |
| 2026-04-30 06:48 | 21.73817 | 116.34134 | 34258 ft | 528 kts | 91° |
| 2026-04-30 06:48 | 21.73785 | 116.38086 | 34466 ft | 529 kts | 91° |
| 2026-04-30 06:49 | 21.73752 | 116.42041 | 34655 ft | 529 kts | 91° |
| 2026-04-30 06:49 | 21.73719 | 116.45996 | 34879 ft | 529 kts | 91° |
| 2026-04-30 06:49 | 21.73684 | 116.49969 | 35097 ft | 529 kts | 91° |
| 2026-04-30 06:49 | 21.73648 | 116.53930 | 35317 ft | 529 kts | 91° |
| 2026-04-30 06:50 | 21.73612 | 116.57787 | 35530 ft | 529 kts | 91° |
| 2026-04-30 06:50 | 21.73574 | 116.61823 | 35842 ft | 526 kts | 91° |
| 2026-04-30 06:50 | 21.73536 | 116.65755 | 36071 ft | 525 kts | 91° |
| 2026-04-30 06:50 | 21.73497 | 116.69689 | 36241 ft | 526 kts | 91° |
| 2026-04-30 06:51 | 21.73465 | 116.73619 | 36416 ft | 526 kts | 90° |
| 2026-04-30 06:51 | 21.73734 | 116.77498 | 36566 ft | 527 kts | 81° |
| 2026-04-30 06:51 | 21.74557 | 116.81335 | 36695 ft | 528 kts | 71° |
| 2026-04-30 06:52 | 21.77050 | 116.88806 | 36993 ft | 528 kts | 68° |
| 2026-04-30 06:52 | 21.78386 | 116.92471 | 37275 ft | 526 kts | 68° |
| 2026-04-30 06:52 | 21.79736 | 116.96124 | 37466 ft | 525 kts | 68° |
| 2026-04-30 06:52 | 21.81084 | 116.99772 | 37605 ft | 525 kts | 68° |
| 2026-04-30 06:53 | 21.82429 | 117.03440 | 37770 ft | 525 kts | 68° |
| 2026-04-30 06:53 | 21.83762 | 117.07099 | 37915 ft | 525 kts | 68° |
| 2026-04-30 06:53 | 21.85090 | 117.10764 | 38063 ft | 525 kts | 68° |
| 2026-04-30 06:53 | 21.86413 | 117.14431 | 38218 ft | 525 kts | 68° |
| 2026-04-30 06:54 | 21.87717 | 117.18054 | 38344 ft | 525 kts | 68° |
| 2026-04-30 06:54 | 21.89031 | 117.21708 | 38609 ft | 521 kts | 68° |
| 2026-04-30 06:54 | 21.90337 | 117.25344 | 38757 ft | 521 kts | 68° |
| 2026-04-30 06:55 | 21.92953 | 117.32630 | 38912 ft | 521 kts | 68° |
| 2026-04-30 06:55 | 21.95575 | 117.39941 | 38996 ft | 524 kts | 68° |
| 2026-04-30 06:56 | 21.98217 | 117.47305 | 38990 ft | 529 kts | 68° |
| 2026-04-30 06:56 | 22.01596 | 117.54251 | 38994 ft | 525 kts | 58° |
| 2026-04-30 06:57 | 22.05375 | 117.60998 | 38990 ft | 524 kts | 57° |
| 2026-04-30 06:57 | 22.09204 | 117.67695 | 38992 ft | 524 kts | 57° |
| 2026-04-30 06:58 | 22.13022 | 117.74394 | 38992 ft | 524 kts | 57° |
| 2026-04-30 06:58 | 22.16835 | 117.81121 | 38993 ft | 525 kts | 57° |
| 2026-04-30 06:59 | 22.20625 | 117.87825 | 38990 ft | 527 kts | 57° |
| 2026-04-30 06:59 | 22.24450 | 117.94603 | 38994 ft | 527 kts | 57° |
| 2026-04-30 07:00 | 22.28266 | 118.01372 | 38998 ft | 527 kts | 57° |
| 2026-04-30 07:00 | 22.32125 | 118.08050 | 38995 ft | 527 kts | 56° |
| 2026-04-30 07:01 | 22.36053 | 118.14725 | 38995 ft | 525 kts | 56° |
| 2026-04-30 07:01 | 22.39964 | 118.21402 | 38994 ft | 526 kts | 56° |
| 2026-04-30 07:02 | 22.43832 | 118.28146 | 38990 ft | 528 kts | 57° |
| 2026-04-30 07:02 | 22.47632 | 118.34890 | 38989 ft | 528 kts | 57° |
| 2026-04-30 07:03 | 22.51453 | 118.41671 | 38991 ft | 526 kts | 57° |
| 2026-04-30 07:03 | 22.55271 | 118.48437 | 38992 ft | 525 kts | 57° |
| 2026-04-30 07:04 | 22.59064 | 118.55154 | 38986 ft | 525 kts | 57° |
| 2026-04-30 07:04 | 22.62907 | 118.61891 | 38995 ft | 525 kts | 57° |
| 2026-04-30 07:05 | 22.68668 | 118.71989 | 38991 ft | 525 kts | 57° |
| 2026-04-30 07:05 | 22.72497 | 118.78728 | 38990 ft | 525 kts | 57° |
| 2026-04-30 07:06 | 22.76296 | 118.85426 | 38994 ft | 525 kts | 58° |
| 2026-04-30 07:06 | 22.80112 | 118.92165 | 38989 ft | 525 kts | 57° |
| 2026-04-30 07:07 | 22.83941 | 118.98933 | 38992 ft | 526 kts | 58° |
| 2026-04-30 07:07 | 22.87761 | 119.05695 | 38983 ft | 526 kts | 58° |
| 2026-04-30 07:08 | 22.91583 | 119.12470 | 38998 ft | 525 kts | 58° |
| 2026-04-30 07:08 | 22.95370 | 119.19191 | 38995 ft | 525 kts | 58° |
| 2026-04-30 07:09 | 22.99190 | 119.25979 | 38979 ft | 526 kts | 58° |
| 2026-04-30 07:09 | 23.03002 | 119.32763 | 38990 ft | 527 kts | 58° |
| 2026-04-30 07:10 | 23.06817 | 119.39559 | 38990 ft | 527 kts | 58° |
| 2026-04-30 07:10 | 23.10636 | 119.46373 | 38990 ft | 527 kts | 58° |
| 2026-04-30 07:11 | 23.14427 | 119.53147 | 38990 ft | 527 kts | 58° |
| 2026-04-30 07:11 | 23.18229 | 119.59948 | 38980 ft | 527 kts | 58° |
| 2026-04-30 07:12 | 23.22048 | 119.66789 | 38994 ft | 527 kts | 58° |
| 2026-04-30 07:12 | 23.25856 | 119.73610 | 38992 ft | 528 kts | 58° |
| 2026-04-30 07:13 | 23.29641 | 119.80399 | 38995 ft | 528 kts | 58° |
| 2026-04-30 07:13 | 23.33454 | 119.87249 | 38989 ft | 528 kts | 58° |
| 2026-04-30 07:14 | 23.37729 | 119.93710 | 38995 ft | 525 kts | 44° |
| 2026-04-30 07:14 | 23.42908 | 119.99312 | 38995 ft | 525 kts | 42° |
| 2026-04-30 07:15 | 23.48242 | 120.04780 | 38991 ft | 527 kts | 41° |
| 2026-04-30 07:15 | 23.53595 | 120.10246 | 38990 ft | 528 kts | 41° |
| 2026-04-30 07:16 | 23.58897 | 120.15697 | 38990 ft | 527 kts | 42° |
| 2026-04-30 07:16 | 23.64226 | 120.21201 | 38991 ft | 526 kts | 42° |
| 2026-04-30 07:17 | 23.69554 | 120.26715 | 38994 ft | 528 kts | 41° |
| 2026-04-30 07:18 | 23.77535 | 120.34984 | 38991 ft | 529 kts | 42° |
| 2026-04-30 07:18 | 23.82874 | 120.40524 | 38985 ft | 529 kts | 42° |
| 2026-04-30 07:19 | 23.88214 | 120.46071 | 39002 ft | 529 kts | 42° |
| 2026-04-30 07:19 | 23.93552 | 120.51639 | 38998 ft | 530 kts | 42° |
| 2026-04-30 07:20 | 23.98866 | 120.57245 | 39011 ft | 531 kts | 42° |
| 2026-04-30 07:20 | 24.04177 | 120.62863 | 39024 ft | 531 kts | 42° |
| 2026-04-30 07:21 | 24.09490 | 120.68483 | 39050 ft | 531 kts | 42° |
| 2026-04-30 07:21 | 24.14785 | 120.74086 | 39032 ft | 533 kts | 42° |
| 2026-04-30 07:22 | 24.22808 | 120.82588 | 39029 ft | 534 kts | 42° |
| 2026-04-30 07:22 | 24.28151 | 120.88258 | 39030 ft | 535 kts | 42° |
| 2026-04-30 07:23 | 24.32595 | 120.92981 | 39036 ft | 535 kts | 41° |
| 2026-04-30 07:23 | 24.37945 | 120.98668 | 39035 ft | 535 kts | 42° |
| 2026-04-30 07:24 | 24.43054 | 121.04636 | 39030 ft | 536 kts | 49° |
| 2026-04-30 07:24 | 24.47739 | 121.10969 | 39043 ft | 537 kts | 50° |
| 2026-04-30 07:25 | 24.52368 | 121.17387 | 39048 ft | 536 kts | 50° |
| 2026-04-30 07:25 | 24.57013 | 121.23831 | 39047 ft | 537 kts | 50° |
| 2026-04-30 07:26 | 24.61661 | 121.30266 | 39048 ft | 536 kts | 50° |
| 2026-04-30 07:26 | 24.66296 | 121.36683 | 39052 ft | 535 kts | 50° |
| 2026-04-30 07:27 | 24.70905 | 121.43069 | 39048 ft | 536 kts | 50° |
| 2026-04-30 07:27 | 24.75525 | 121.49484 | 39050 ft | 535 kts | 50° |
| 2026-04-30 07:28 | 24.80152 | 121.55917 | 39046 ft | 536 kts | 50° |
| 2026-04-30 07:28 | 24.84775 | 121.62352 | 39049 ft | 535 kts | 50° |
| 2026-04-30 07:29 | 24.89394 | 121.68788 | 39049 ft | 535 kts | 50° |
| 2026-04-30 07:29 | 24.94135 | 121.75109 | 39074 ft | 535 kts | 47° |
| 2026-04-30 07:30 | 25.01531 | 121.84336 | 39052 ft | 538 kts | 46° |
| 2026-04-30 07:31 | 25.06462 | 121.90563 | 39049 ft | 539 kts | 47° |
| 2026-04-30 07:31 | 25.11368 | 121.96822 | 39053 ft | 539 kts | 47° |
| 2026-04-30 07:32 | 25.16261 | 122.03113 | 39054 ft | 540 kts | 47° |
| 2026-04-30 07:32 | 25.21103 | 122.09401 | 39054 ft | 541 kts | 47° |
| 2026-04-30 07:33 | 25.25976 | 122.15739 | 39057 ft | 541 kts | 47° |
| 2026-04-30 07:33 | 25.30851 | 122.22079 | 39050 ft | 541 kts | 47° |
| 2026-04-30 07:34 | 25.35725 | 122.28424 | 39060 ft | 542 kts | 47° |
| 2026-04-30 07:34 | 25.40609 | 122.34790 | 39050 ft | 543 kts | 47° |
| 2026-04-30 07:35 | 25.45494 | 122.41168 | 39048 ft | 542 kts | 47° |
| 2026-04-30 07:35 | 25.50345 | 122.47509 | 39053 ft | 542 kts | 47° |
| 2026-04-30 07:36 | 25.55228 | 122.53887 | 39055 ft | 542 kts | 46° |
| 2026-04-30 07:36 | 25.60139 | 122.60255 | 39051 ft | 544 kts | 46° |
| 2026-04-30 07:37 | 25.65058 | 122.66645 | 39048 ft | 544 kts | 47° |
| 2026-04-30 07:37 | 25.69954 | 122.73024 | 39048 ft | 543 kts | 47° |
| 2026-04-30 07:38 | 25.74848 | 122.79414 | 39059 ft | 543 kts | 47° |
| 2026-04-30 07:38 | 25.79723 | 122.85785 | 39041 ft | 546 kts | 47° |
| 2026-04-30 07:39 | 25.84644 | 122.92229 | 39051 ft | 547 kts | 47° |
| 2026-04-30 07:39 | 25.89553 | 122.98667 | 39050 ft | 545 kts | 47° |
| 2026-04-30 07:40 | 25.94452 | 123.05111 | 39050 ft | 546 kts | 47° |
| 2026-04-30 07:40 | 25.99366 | 123.11572 | 39047 ft | 549 kts | 47° |
| 2026-04-30 07:41 | 26.04275 | 123.18036 | 39038 ft | 549 kts | 47° |
| 2026-04-30 07:41 | 26.09190 | 123.24522 | 39038 ft | 548 kts | 47° |
| 2026-04-30 07:42 | 26.14099 | 123.31009 | 39054 ft | 548 kts | 47° |
| 2026-04-30 07:42 | 26.19013 | 123.37510 | 39044 ft | 550 kts | 47° |
| 2026-04-30 07:43 | 26.23936 | 123.44033 | 39046 ft | 550 kts | 47° |
| 2026-04-30 07:43 | 26.28866 | 123.50577 | 39044 ft | 550 kts | 47° |
| 2026-04-30 07:44 | 26.33782 | 123.57109 | 39062 ft | 551 kts | 48° |
| 2026-04-30 07:44 | 26.38722 | 123.63683 | 39052 ft | 554 kts | 48° |
| 2026-04-30 07:45 | 26.43676 | 123.70288 | 39038 ft | 555 kts | 47° |
| 2026-04-30 07:45 | 26.48598 | 123.76860 | 39049 ft | 554 kts | 47° |
| 2026-04-30 07:46 | 26.53547 | 123.83476 | 39060 ft | 555 kts | 48° |
| 2026-04-30 07:46 | 26.58506 | 123.90114 | 39049 ft | 557 kts | 48° |
| 2026-04-30 07:47 | 26.63470 | 123.96770 | 39036 ft | 557 kts | 48° |
| 2026-04-30 07:47 | 26.68394 | 124.03383 | 39043 ft | 556 kts | 48° |
| 2026-04-30 07:48 | 26.73357 | 124.10022 | 39038 ft | 556 kts | 48° |
| 2026-04-30 07:48 | 26.78320 | 124.16663 | 39044 ft | 556 kts | 48° |
| 2026-04-30 07:49 | 26.83277 | 124.23310 | 39041 ft | 556 kts | 48° |
| 2026-04-30 07:49 | 26.88222 | 124.29958 | 39061 ft | 555 kts | 49° |
| 2026-04-30 07:50 | 26.93168 | 124.36619 | 39043 ft | 557 kts | 48° |
| 2026-04-30 07:50 | 26.98095 | 124.43260 | 39042 ft | 557 kts | 48° |
| 2026-04-30 07:51 | 27.03047 | 124.49952 | 39034 ft | 557 kts | 48° |
| 2026-04-30 07:51 | 27.08006 | 124.56644 | 39055 ft | 557 kts | 49° |
| 2026-04-30 07:52 | 27.12970 | 124.63355 | 39036 ft | 560 kts | 49° |
| 2026-04-30 07:52 | 27.17940 | 124.70090 | 39036 ft | 560 kts | 49° |
| 2026-04-30 07:53 | 27.22879 | 124.76795 | 39033 ft | 559 kts | 49° |
| 2026-04-30 07:53 | 27.27837 | 124.83534 | 39038 ft | 560 kts | 49° |
| 2026-04-30 07:54 | 27.32819 | 124.90318 | 39031 ft | 562 kts | 49° |
| 2026-04-30 07:54 | 27.37787 | 124.97093 | 39031 ft | 562 kts | 49° |
| 2026-04-30 07:55 | 27.42764 | 125.03882 | 39037 ft | 561 kts | 49° |
| 2026-04-30 07:55 | 27.47736 | 125.10579 | 39031 ft | 562 kts | 49° |
| 2026-04-30 07:56 | 27.52760 | 125.17338 | 39030 ft | 562 kts | 49° |
| 2026-04-30 07:56 | 27.57772 | 125.24110 | 39032 ft | 562 kts | 49° |
| 2026-04-30 07:57 | 27.62773 | 125.30886 | 39031 ft | 562 kts | 49° |
| 2026-04-30 07:57 | 27.67787 | 125.37695 | 39022 ft | 563 kts | 49° |
| 2026-04-30 07:58 | 27.72762 | 125.44461 | 39024 ft | 563 kts | 49° |
| 2026-04-30 07:58 | 27.77770 | 125.51281 | 39023 ft | 564 kts | 49° |
| 2026-04-30 07:59 | 27.82784 | 125.58120 | 39015 ft | 565 kts | 49° |
| 2026-04-30 07:59 | 27.87795 | 125.64966 | 39017 ft | 565 kts | 49° |
| 2026-04-30 08:00 | 27.95273 | 125.75202 | 39034 ft | 566 kts | 49° |
| 2026-04-30 08:00 | 28.00294 | 125.82089 | 39018 ft | 566 kts | 49° |
| 2026-04-30 08:01 | 28.05304 | 125.88972 | 39019 ft | 566 kts | 49° |
| 2026-04-30 08:01 | 28.10311 | 125.95862 | 39013 ft | 566 kts | 49° |
| 2026-04-30 08:02 | 28.17794 | 126.06180 | 39009 ft | 568 kts | 49° |
| 2026-04-30 08:03 | 28.27820 | 126.20044 | 39010 ft | 568 kts | 49° |
| 2026-04-30 08:04 | 28.32832 | 126.26992 | 38992 ft | 570 kts | 50° |
| 2026-04-30 08:04 | 28.37852 | 126.33963 | 39004 ft | 569 kts | 50° |
| 2026-04-30 08:05 | 28.42865 | 126.40935 | 38999 ft | 569 kts | 50° |
| 2026-04-30 08:05 | 28.47874 | 126.47912 | 38993 ft | 569 kts | 50° |
| 2026-04-30 08:06 | 28.52875 | 126.54891 | 38991 ft | 569 kts | 50° |
| 2026-04-30 08:06 | 28.57870 | 126.61873 | 38990 ft | 568 kts | 50° |
| 2026-04-30 08:07 | 28.62834 | 126.68822 | 39006 ft | 569 kts | 50° |
| 2026-04-30 08:07 | 28.67837 | 126.75837 | 38970 ft | 572 kts | 50° |
| 2026-04-30 08:08 | 28.72848 | 126.82878 | 38987 ft | 571 kts | 50° |
| 2026-04-30 08:08 | 28.77846 | 126.89911 | 39006 ft | 571 kts | 50° |
| 2026-04-30 08:09 | 28.82818 | 126.96918 | 38984 ft | 572 kts | 50° |
| 2026-04-30 08:09 | 28.87818 | 127.03978 | 38979 ft | 571 kts | 50° |
| 2026-04-30 08:10 | 28.92808 | 127.11036 | 38980 ft | 571 kts | 50° |
| 2026-04-30 08:10 | 28.96951 | 127.16904 | 38976 ft | 572 kts | 50° |
| 2026-04-30 08:11 | 29.01967 | 127.24018 | 38950 ft | 574 kts | 50° |
| 2026-04-30 08:11 | 29.06964 | 127.31122 | 38971 ft | 573 kts | 50° |
| 2026-04-30 08:12 | 29.11959 | 127.38232 | 38972 ft | 573 kts | 50° |
| 2026-04-30 08:12 | 29.16968 | 127.45375 | 38965 ft | 575 kts | 50° |
| 2026-04-30 08:13 | 29.21936 | 127.52473 | 38948 ft | 574 kts | 50° |
| 2026-04-30 08:13 | 29.26917 | 127.59601 | 38976 ft | 574 kts | 50° |
| 2026-04-30 08:14 | 29.31910 | 127.66757 | 38944 ft | 576 kts | 50° |
| 2026-04-30 08:14 | 29.36914 | 127.73942 | 38936 ft | 576 kts | 50° |
| 2026-04-30 08:15 | 29.41901 | 127.81117 | 38969 ft | 575 kts | 50° |
| 2026-04-30 08:15 | 29.46898 | 127.88316 | 38939 ft | 577 kts | 50° |
| 2026-04-30 08:16 | 29.51896 | 127.95533 | 38913 ft | 577 kts | 51° |
| 2026-04-30 08:16 | 29.56861 | 128.02712 | 38956 ft | 576 kts | 50° |
| 2026-04-30 08:17 | 29.61866 | 128.09951 | 38928 ft | 578 kts | 51° |
| 2026-04-30 08:17 | 29.66869 | 128.17199 | 38927 ft | 579 kts | 51° |
| 2026-04-30 08:18 | 29.71836 | 128.24413 | 38939 ft | 578 kts | 51° |
| 2026-04-30 08:18 | 29.76829 | 128.31676 | 38922 ft | 579 kts | 51° |
| 2026-04-30 08:19 | 29.81818 | 128.38948 | 38918 ft | 579 kts | 51° |
| 2026-04-30 08:19 | 29.86815 | 128.46243 | 38934 ft | 579 kts | 51° |
| 2026-04-30 08:20 | 29.91811 | 128.53550 | 38907 ft | 582 kts | 51° |
| 2026-04-30 08:20 | 29.96798 | 128.60858 | 38912 ft | 583 kts | 51° |
| 2026-04-30 08:21 | 30.01808 | 128.68212 | 38899 ft | 582 kts | 51° |
| 2026-04-30 08:21 | 30.06806 | 128.75563 | 38906 ft | 581 kts | 51° |
| 2026-04-30 08:22 | 30.11794 | 128.82913 | 38903 ft | 580 kts | 51° |
| 2026-04-30 08:22 | 30.16769 | 128.90256 | 38909 ft | 580 kts | 51° |
| 2026-04-30 08:23 | 30.21746 | 128.97617 | 38902 ft | 581 kts | 51° |
| 2026-04-30 08:23 | 30.26691 | 129.04946 | 38900 ft | 581 kts | 51° |
| 2026-04-30 08:24 | 30.31664 | 129.12326 | 38894 ft | 581 kts | 51° |
| 2026-04-30 08:24 | 30.36632 | 129.19712 | 38897 ft | 581 kts | 51° |
| 2026-04-30 08:25 | 30.41600 | 129.27112 | 38897 ft | 581 kts | 51° |
| 2026-04-30 08:25 | 30.46560 | 129.34516 | 38902 ft | 582 kts | 51° |
| 2026-04-30 08:26 | 30.51491 | 129.41890 | 38888 ft | 581 kts | 51° |
| 2026-04-30 08:26 | 30.56440 | 129.49304 | 38886 ft | 581 kts | 51° |
| 2026-04-30 08:27 | 30.61386 | 129.56729 | 38890 ft | 581 kts | 51° |
| 2026-04-30 08:27 | 30.66341 | 129.64181 | 38877 ft | 582 kts | 51° |
| 2026-04-30 08:28 | 30.71254 | 129.71582 | 38873 ft | 581 kts | 51° |
| 2026-04-30 08:28 | 30.76188 | 129.79029 | 38870 ft | 582 kts | 52° |
| 2026-04-30 08:29 | 30.81133 | 129.86509 | 38861 ft | 582 kts | 52° |
| 2026-04-30 08:29 | 30.86756 | 129.93160 | 38867 ft | 574 kts | 32° |
| 2026-04-30 08:30 | 30.93281 | 129.98523 | 38860 ft | 574 kts | 30° |
| 2026-04-30 08:30 | 30.99951 | 130.03663 | 38832 ft | 575 kts | 29° |
| 2026-04-30 08:31 | 31.06630 | 130.08790 | 38867 ft | 573 kts | 29° |
| 2026-04-30 08:31 | 31.13241 | 130.13914 | 38859 ft | 574 kts | 30° |
| 2026-04-30 08:32 | 31.19892 | 130.19102 | 38859 ft | 574 kts | 30° |
| 2026-04-30 08:32 | 31.26545 | 130.24307 | 38863 ft | 576 kts | 29° |
| 2026-04-30 08:33 | 31.33227 | 130.29542 | 38862 ft | 576 kts | 30° |
| 2026-04-30 08:33 | 31.39847 | 130.34738 | 38873 ft | 576 kts | 30° |
| 2026-04-30 08:34 | 31.46517 | 130.39977 | 38859 ft | 577 kts | 30° |
| 2026-04-30 08:34 | 31.53153 | 130.45199 | 38865 ft | 577 kts | 30° |
| 2026-04-30 08:35 | 31.59815 | 130.50453 | 38862 ft | 576 kts | 30° |
| 2026-04-30 08:35 | 31.66462 | 130.55704 | 38859 ft | 574 kts | 30° |
| 2026-04-30 08:36 | 31.73111 | 130.60901 | 38866 ft | 573 kts | 27° |
| 2026-04-30 08:36 | 31.79920 | 130.65830 | 38856 ft | 575 kts | 26° |
| 2026-04-30 08:37 | 31.86761 | 130.70716 | 38878 ft | 575 kts | 26° |
| 2026-04-30 08:37 | 31.93541 | 130.75621 | 38865 ft | 577 kts | 27° |
| 2026-04-30 08:38 | 32.00373 | 130.80613 | 38872 ft | 578 kts | 27° |
| 2026-04-30 08:38 | 32.07203 | 130.85623 | 38880 ft | 579 kts | 27° |
| 2026-04-30 08:39 | 32.14048 | 130.90645 | 38883 ft | 579 kts | 26° |
| 2026-04-30 08:39 | 32.20911 | 130.95611 | 38900 ft | 576 kts | 26° |
| 2026-04-30 08:40 | 32.27770 | 131.00554 | 38888 ft | 578 kts | 26° |
| 2026-04-30 08:40 | 32.34612 | 131.05498 | 38892 ft | 580 kts | 26° |
| 2026-04-30 08:41 | 32.41492 | 131.10479 | 38891 ft | 580 kts | 26° |
| 2026-04-30 08:41 | 32.48368 | 131.15548 | 38886 ft | 582 kts | 27° |
| 2026-04-30 08:42 | 32.55212 | 131.20658 | 38901 ft | 581 kts | 27° |
| 2026-04-30 08:42 | 32.62054 | 131.25773 | 38889 ft | 582 kts | 27° |
| 2026-04-30 08:43 | 32.68870 | 131.30853 | 38912 ft | 583 kts | 27° |
| 2026-04-30 08:43 | 32.75761 | 131.35987 | 38884 ft | 584 kts | 27° |
| 2026-04-30 08:44 | 32.82636 | 131.41145 | 38931 ft | 583 kts | 27° |
| 2026-04-30 08:44 | 32.89509 | 131.46271 | 38900 ft | 584 kts | 26° |
| 2026-04-30 08:45 | 32.96434 | 131.51359 | 38904 ft | 585 kts | 26° |
| 2026-04-30 08:45 | 33.03319 | 131.56422 | 38891 ft | 585 kts | 26° |
| 2026-04-30 08:46 | 33.10247 | 131.61548 | 38903 ft | 585 kts | 26° |
| 2026-04-30 08:46 | 33.17167 | 131.66687 | 38907 ft | 585 kts | 26° |
| 2026-04-30 08:46 | 33.20492 | 131.69515 | 38909 ft | 591 kts | 37° |
| 2026-04-30 08:47 | 33.23411 | 131.72989 | 38908 ft | 595 kts | 50° |
| 2026-04-30 08:47 | 33.28442 | 131.80872 | 38919 ft | 596 kts | 54° |
| 2026-04-30 08:48 | 33.33213 | 131.89006 | 38911 ft | 598 kts | 55° |
| 2026-04-30 08:48 | 33.37932 | 131.97144 | 38908 ft | 598 kts | 54° |
| 2026-04-30 08:49 | 33.42705 | 132.05308 | 38906 ft | 599 kts | 54° |
| 2026-04-30 08:49 | 33.47482 | 132.13433 | 38903 ft | 599 kts | 53° |
| 2026-04-30 08:50 | 33.52506 | 132.21404 | 38895 ft | 599 kts | 51° |
| 2026-04-30 08:50 | 33.57643 | 132.29267 | 38899 ft | 599 kts | 51° |
| 2026-04-30 08:51 | 33.62745 | 132.37174 | 38938 ft | 599 kts | 51° |
| 2026-04-30 08:51 | 33.67813 | 132.45139 | 38899 ft | 601 kts | 52° |
| 2026-04-30 08:52 | 33.72863 | 132.53123 | 38907 ft | 600 kts | 52° |
| 2026-04-30 08:52 | 33.77891 | 132.61083 | 38885 ft | 602 kts | 52° |
| 2026-04-30 08:53 | 33.82637 | 132.69369 | 38885 ft | 601 kts | 64° |
| 2026-04-30 08:53 | 33.85716 | 132.78680 | 38888 ft | 598 kts | 73° |
| 2026-04-30 08:54 | 33.88365 | 132.88166 | 38899 ft | 599 kts | 75° |
| 2026-04-30 08:54 | 33.90929 | 132.97691 | 38910 ft | 598 kts | 75° |
| 2026-04-30 08:55 | 33.93516 | 133.07239 | 38941 ft | 599 kts | 75° |
| 2026-04-30 08:55 | 33.96113 | 133.16734 | 38948 ft | 600 kts | 75° |
| 2026-04-30 08:56 | 33.98726 | 133.26272 | 38943 ft | 599 kts | 75° |
| 2026-04-30 08:56 | 34.01323 | 133.35804 | 38947 ft | 598 kts | 75° |
| 2026-04-30 08:57 | 34.03905 | 133.45341 | 38956 ft | 598 kts | 75° |
| 2026-04-30 08:57 | 34.06643 | 133.54838 | 38956 ft | 599 kts | 72° |
| 2026-04-30 08:58 | 34.09092 | 133.62673 | 38954 ft | 600 kts | 72° |
| 2026-04-30 08:58 | 34.12508 | 133.73638 | 38960 ft | 599 kts | 72° |
| 2026-04-30 08:59 | 34.14920 | 133.81541 | 38964 ft | 599 kts | 72° |
| 2026-04-30 08:59 | 34.17754 | 133.90930 | 38965 ft | 598 kts | 72° |
| 2026-04-30 09:00 | 34.20651 | 134.00419 | 38960 ft | 597 kts | 73° |
| 2026-04-30 09:00 | 34.22833 | 134.10011 | 38988 ft | 594 kts | 79° |
| 2026-04-30 09:01 | 34.24813 | 134.19701 | 38990 ft | 594 kts | 80° |
| 2026-04-30 09:01 | 34.26740 | 134.29422 | 38986 ft | 593 kts | 79° |
| 2026-04-30 09:02 | 34.29620 | 134.43962 | 38982 ft | 593 kts | 79° |
| 2026-04-30 09:02 | 34.31543 | 134.53670 | 38997 ft | 592 kts | 79° |
| 2026-04-30 09:03 | 34.33444 | 134.63295 | 38984 ft | 592 kts | 79° |
| 2026-04-30 09:03 | 34.35349 | 134.72988 | 38999 ft | 591 kts | 79° |
| 2026-04-30 09:04 | 34.37240 | 134.82659 | 39008 ft | 591 kts | 80° |
| 2026-04-30 09:04 | 34.39082 | 134.92347 | 39038 ft | 589 kts | 82° |
| 2026-04-30 09:05 | 34.40650 | 135.02081 | 38993 ft | 590 kts | 83° |
| 2026-04-30 09:05 | 34.42160 | 135.11872 | 38993 ft | 590 kts | 83° |
| 2026-04-30 09:06 | 34.43701 | 135.21640 | 38991 ft | 590 kts | 82° |
| 2026-04-30 09:06 | 34.45265 | 135.31409 | 38993 ft | 589 kts | 82° |
| 2026-04-30 09:07 | 34.46813 | 135.41097 | 39019 ft | 590 kts | 82° |
| 2026-04-30 09:07 | 34.48363 | 135.50869 | 39018 ft | 591 kts | 82° |
| 2026-04-30 09:08 | 34.49904 | 135.60646 | 39027 ft | 591 kts | 83° |
| 2026-04-30 09:08 | 34.51440 | 135.70464 | 39019 ft | 591 kts | 83° |
| 2026-04-30 09:09 | 34.52959 | 135.80228 | 39007 ft | 591 kts | 83° |
| 2026-04-30 09:09 | 34.54482 | 135.90031 | 39026 ft | 589 kts | 83° |
| 2026-04-30 09:10 | 34.55988 | 135.99798 | 39044 ft | 589 kts | 83° |
| 2026-04-30 09:10 | 34.57481 | 136.09544 | 39065 ft | 590 kts | 83° |
| 2026-04-30 09:11 | 34.59516 | 136.19214 | 39075 ft | 596 kts | 68° |
| 2026-04-30 09:11 | 34.63136 | 136.28289 | 39074 ft | 597 kts | 63° |
| 2026-04-30 09:12 | 34.67043 | 136.37197 | 39094 ft | 597 kts | 62° |
| 2026-04-30 09:12 | 34.70989 | 136.46101 | 39086 ft | 598 kts | 62° |
| 2026-04-30 09:13 | 34.74867 | 136.54967 | 39095 ft | 598 kts | 62° |
| 2026-04-30 09:13 | 34.78756 | 136.63944 | 39100 ft | 599 kts | 62° |
| 2026-04-30 09:14 | 34.82629 | 136.72920 | 39103 ft | 599 kts | 62° |
| 2026-04-30 09:14 | 34.87444 | 136.81113 | 39105 ft | 591 kts | 39° |
| 2026-04-30 09:15 | 34.93778 | 136.87237 | 39101 ft | 584 kts | 30° |
| 2026-04-30 09:15 | 35.00439 | 136.92916 | 39097 ft | 583 kts | 28° |
| 2026-04-30 09:16 | 35.07133 | 136.98523 | 39134 ft | 583 kts | 28° |
| 2026-04-30 09:16 | 35.13801 | 137.04177 | 39113 ft | 584 kts | 28° |
| 2026-04-30 09:17 | 35.20465 | 137.09885 | 39097 ft | 584 kts | 29° |
| 2026-04-30 09:17 | 35.27118 | 137.15608 | 39100 ft | 584 kts | 29° |
| 2026-04-30 09:18 | 35.33726 | 137.21308 | 39105 ft | 585 kts | 29° |
| 2026-04-30 09:18 | 35.36864 | 137.24543 | 39130 ft | 593 kts | 41° |
| 2026-04-30 09:18 | 35.39531 | 137.28424 | 39112 ft | 598 kts | 54° |
| 2026-04-30 09:19 | 35.43506 | 137.37418 | 39119 ft | 601 kts | 64° |
| 2026-04-30 09:19 | 35.47019 | 137.46748 | 39121 ft | 602 kts | 66° |
| 2026-04-30 09:20 | 35.50448 | 137.56042 | 39130 ft | 602 kts | 65° |
| 2026-04-30 09:20 | 35.53972 | 137.65390 | 39142 ft | 601 kts | 65° |
| 2026-04-30 09:21 | 35.57506 | 137.74694 | 39132 ft | 600 kts | 65° |
| 2026-04-30 09:21 | 35.61003 | 137.83957 | 39139 ft | 600 kts | 66° |
| 2026-04-30 09:22 | 35.64390 | 137.93356 | 39149 ft | 601 kts | 67° |
| 2026-04-30 09:22 | 35.67739 | 138.02778 | 39160 ft | 600 kts | 66° |
| 2026-04-30 09:23 | 35.71269 | 138.12091 | 39168 ft | 600 kts | 64° |
| 2026-04-30 09:23 | 35.74890 | 138.21282 | 39180 ft | 600 kts | 64° |
| 2026-04-30 09:24 | 35.78502 | 138.30557 | 39178 ft | 602 kts | 64° |
| 2026-04-30 09:24 | 35.82087 | 138.39904 | 39210 ft | 602 kts | 64° |
| 2026-04-30 09:25 | 35.85650 | 138.49235 | 39222 ft | 601 kts | 64° |
| 2026-04-30 09:25 | 35.89211 | 138.58575 | 39240 ft | 601 kts | 64° |
| 2026-04-30 09:26 | 35.92751 | 138.67912 | 39258 ft | 602 kts | 64° |
| 2026-04-30 09:26 | 35.96293 | 138.77292 | 39256 ft | 603 kts | 65° |
| 2026-04-30 09:27 | 35.99806 | 138.86621 | 39257 ft | 602 kts | 64° |
| 2026-04-30 09:27 | 36.03334 | 138.96011 | 39263 ft | 604 kts | 65° |
| 2026-04-30 09:28 | 36.06853 | 139.05423 | 39266 ft | 603 kts | 65° |
| 2026-04-30 09:28 | 36.10368 | 139.14835 | 39264 ft | 603 kts | 64° |
| 2026-04-30 09:29 | 36.13881 | 139.24284 | 39270 ft | 603 kts | 65° |
| 2026-04-30 09:29 | 36.17856 | 139.33381 | 39267 ft | 600 kts | 53° |
| 2026-04-30 09:30 | 36.22608 | 139.41783 | 39260 ft | 599 kts | 51° |
| 2026-04-30 09:30 | 36.27525 | 139.50122 | 39263 ft | 599 kts | 50° |
| 2026-04-30 09:31 | 36.32450 | 139.58459 | 39258 ft | 599 kts | 50° |
| 2026-04-30 09:31 | 36.37350 | 139.66825 | 39250 ft | 599 kts | 51° |
| 2026-04-30 09:32 | 36.42233 | 139.75205 | 39283 ft | 599 kts | 50° |
| 2026-04-30 09:32 | 36.47142 | 139.83577 | 39254 ft | 599 kts | 50° |
| 2026-04-30 09:33 | 36.51951 | 139.91972 | 39228 ft | 601 kts | 53° |
| 2026-04-30 09:33 | 36.56552 | 140.00747 | 39232 ft | 601 kts | 54° |
| 2026-04-30 09:34 | 36.61046 | 140.09457 | 39227 ft | 601 kts | 54° |
| 2026-04-30 09:34 | 36.65611 | 140.18189 | 39224 ft | 601 kts | 54° |
| 2026-04-30 09:35 | 36.70207 | 140.26919 | 39222 ft | 601 kts | 53° |
| 2026-04-30 09:35 | 36.74603 | 140.35812 | 39236 ft | 604 kts | 63° |
| 2026-04-30 09:36 | 36.78149 | 140.45235 | 39239 ft | 605 kts | 64° |
| 2026-04-30 09:36 | 36.81561 | 140.54858 | 39236 ft | 606 kts | 65° |
| 2026-04-30 09:37 | 36.84931 | 140.64496 | 39238 ft | 605 kts | 65° |
| 2026-04-30 09:37 | 36.88313 | 140.74140 | 39236 ft | 605 kts | 65° |
| 2026-04-30 09:38 | 36.91700 | 140.83788 | 39237 ft | 606 kts | 65° |
| 2026-04-30 09:38 | 36.95058 | 140.93372 | 39232 ft | 606 kts | 65° |
| 2026-04-30 09:39 | 36.98436 | 141.03059 | 39231 ft | 606 kts | 65° |
| 2026-04-30 09:39 | 37.01808 | 141.12751 | 39238 ft | 607 kts | 65° |
| 2026-04-30 09:40 | 37.05169 | 141.22439 | 39230 ft | 607 kts | 65° |
| 2026-04-30 09:40 | 37.08510 | 141.32105 | 39231 ft | 607 kts | 65° |
| 2026-04-30 09:41 | 37.11855 | 141.41815 | 39231 ft | 608 kts | 65° |
| 2026-04-30 09:41 | 37.15201 | 141.51561 | 39230 ft | 608 kts | 65° |
| 2026-04-30 09:42 | 37.18522 | 141.61265 | 39230 ft | 608 kts | 65° |
| 2026-04-30 09:42 | 37.21852 | 141.71029 | 39230 ft | 608 kts | 65° |
| 2026-04-30 09:43 | 37.25172 | 141.80794 | 39229 ft | 608 kts | 65° |
| 2026-04-30 09:43 | 37.28486 | 141.90575 | 39236 ft | 609 kts | 65° |
| 2026-04-30 09:44 | 37.31800 | 142.00388 | 39238 ft | 609 kts | 65° |
| 2026-04-30 09:44 | 37.35102 | 142.10197 | 39240 ft | 609 kts | 65° |
| 2026-04-30 09:45 | 37.38374 | 142.19949 | 39238 ft | 609 kts | 65° |
| 2026-04-30 09:45 | 37.41662 | 142.29782 | 39253 ft | 609 kts | 65° |
| 2026-04-30 09:46 | 37.44941 | 142.39622 | 39248 ft | 610 kts | 65° |
| 2026-04-30 09:46 | 37.47665 | 142.47822 | 39227 ft | 610 kts | 65° |
| 2026-04-30 09:47 | 37.51462 | 142.59292 | 39247 ft | 609 kts | 65° |
| 2026-04-30 09:47 | 37.54188 | 142.67551 | 39252 ft | 609 kts | 65° |
| 2026-04-30 09:48 | 37.57398 | 142.77354 | 39263 ft | 609 kts | 65° |
| 2026-04-30 09:48 | 37.60569 | 142.87255 | 39253 ft | 609 kts | 66° |
| 2026-04-30 09:49 | 37.63734 | 142.97203 | 39261 ft | 609 kts | 66° |
| 2026-04-30 09:49 | 37.66893 | 143.07142 | 39260 ft | 610 kts | 66° |
| 2026-04-30 09:50 | 37.70032 | 143.17025 | 39261 ft | 610 kts | 66° |
| 2026-04-30 09:50 | 37.73186 | 143.26987 | 39275 ft | 611 kts | 66° |
| 2026-04-30 09:51 | 37.76333 | 143.36981 | 39266 ft | 611 kts | 66° |
| 2026-04-30 09:51 | 37.79473 | 143.46988 | 39265 ft | 612 kts | 66° |
| 2026-04-30 09:52 | 37.82591 | 143.56995 | 39261 ft | 613 kts | 67° |
| 2026-04-30 09:52 | 37.85390 | 143.67139 | 39266 ft | 614 kts | 70° |
| 2026-04-30 09:53 | 37.88042 | 143.77423 | 39274 ft | 615 kts | 70° |
| 2026-04-30 09:53 | 37.90736 | 143.87719 | 39269 ft | 615 kts | 69° |
| 2026-04-30 09:54 | 37.93468 | 143.97984 | 39274 ft | 615 kts | 69° |
| 2026-04-30 09:54 | 37.96206 | 144.08249 | 39277 ft | 615 kts | 69° |
| 2026-04-30 09:55 | 37.98939 | 144.18548 | 39280 ft | 615 kts | 69° |
| 2026-04-30 09:55 | 38.01640 | 144.28785 | 39283 ft | 615 kts | 69° |
| 2026-04-30 09:56 | 38.04348 | 144.39099 | 39281 ft | 616 kts | 69° |
| 2026-04-30 09:56 | 38.07051 | 144.49434 | 39282 ft | 616 kts | 69° |
| 2026-04-30 09:57 | 38.09744 | 144.59770 | 39285 ft | 618 kts | 69° |
| 2026-04-30 09:57 | 38.12438 | 144.70154 | 39287 ft | 618 kts | 69° |
| 2026-04-30 09:58 | 38.15121 | 144.80538 | 39292 ft | 619 kts | 69° |
| 2026-04-30 09:58 | 38.17778 | 144.90866 | 39287 ft | 619 kts | 69° |
| 2026-04-30 09:59 | 38.23117 | 145.11743 | 39290 ft | 620 kts | 69° |
| 2026-04-30 10:00 | 38.27077 | 145.27347 | 39298 ft | 621 kts | 69° |
| 2026-04-30 10:01 | 38.31041 | 145.43061 | 39292 ft | 621 kts | 69° |
| 2026-04-30 10:01 | 38.32568 | 145.48097 | 39298 ft | 615 kts | 58° |
| 2026-04-30 10:02 | 38.37480 | 145.56752 | 39335 ft | 587 kts | 35° |
| 2026-04-30 10:02 | 38.43336 | 145.63955 | 39296 ft | 584 kts | 32° |
| 2026-04-30 10:03 | 38.49340 | 145.70938 | 39302 ft | 584 kts | 31° |
| 2026-04-30 10:03 | 38.55300 | 145.77891 | 39306 ft | 585 kts | 32° |
| 2026-04-30 10:03 | 38.58293 | 145.81420 | 39483 ft | 584 kts | 31° |
| 2026-04-30 10:04 | 38.61272 | 145.84954 | 39726 ft | 581 kts | 32° |
| 2026-04-30 10:04 | 38.64231 | 145.88476 | 39949 ft | 579 kts | 32° |
| 2026-04-30 10:04 | 38.67171 | 145.91981 | 40139 ft | 577 kts | 32° |
| 2026-04-30 10:04 | 38.70105 | 145.95480 | 40369 ft | 575 kts | 31° |
| 2026-04-30 10:05 | 38.73027 | 145.98968 | 40533 ft | 574 kts | 31° |
| 2026-04-30 10:05 | 38.75912 | 146.02413 | 40686 ft | 573 kts | 31° |
| 2026-04-30 10:05 | 38.78825 | 146.05895 | 40849 ft | 571 kts | 31° |
| 2026-04-30 10:05 | 38.81730 | 146.09373 | 41043 ft | 569 kts | 31° |
| 2026-04-30 10:06 | 38.84619 | 146.12835 | 41161 ft | 568 kts | 31° |
| 2026-04-30 10:06 | 38.87503 | 146.16292 | 41262 ft | 568 kts | 31° |
| 2026-04-30 10:06 | 38.90401 | 146.19769 | 41303 ft | 569 kts | 31° |
| 2026-04-30 10:07 | 38.96189 | 146.26724 | 41301 ft | 569 kts | 31° |
| 2026-04-30 10:07 | 39.01926 | 146.33643 | 41330 ft | 569 kts | 31° |
| 2026-04-30 10:08 | 39.07694 | 146.40620 | 41301 ft | 568 kts | 31° |
| 2026-04-30 10:08 | 39.13458 | 146.47603 | 41303 ft | 568 kts | 31° |
| 2026-04-30 10:09 | 39.19209 | 146.54586 | 41296 ft | 568 kts | 31° |
| 2026-04-30 10:09 | 39.24960 | 146.61588 | 41303 ft | 568 kts | 31° |
| 2026-04-30 10:10 | 39.30706 | 146.68599 | 41302 ft | 568 kts | 31° |
| 2026-04-30 10:10 | 39.36452 | 146.75627 | 41305 ft | 568 kts | 31° |
| 2026-04-30 10:11 | 39.42188 | 146.82662 | 41303 ft | 568 kts | 31° |
| 2026-04-30 10:11 | 39.47891 | 146.89674 | 41301 ft | 567 kts | 31° |
| 2026-04-30 10:12 | 39.53598 | 146.96704 | 41296 ft | 566 kts | 31° |
| 2026-04-30 10:12 | 39.59310 | 147.03756 | 41297 ft | 566 kts | 31° |
| 2026-04-30 10:13 | 39.65018 | 147.10819 | 41314 ft | 567 kts | 31° |
| 2026-04-30 10:13 | 39.70680 | 147.17850 | 41295 ft | 565 kts | 31° |
| 2026-04-30 10:14 | 39.76367 | 147.24922 | 41295 ft | 565 kts | 31° |
| 2026-04-30 10:14 | 39.84884 | 147.35544 | 41295 ft | 565 kts | 31° |
| 2026-04-30 10:15 | 39.90556 | 147.42645 | 41295 ft | 564 kts | 31° |
| 2026-04-30 10:15 | 39.96214 | 147.49744 | 41315 ft | 564 kts | 31° |
| 2026-04-30 10:16 | 40.01837 | 147.56811 | 41289 ft | 565 kts | 31° |
| 2026-04-30 10:17 | 40.10323 | 147.67511 | 41296 ft | 565 kts | 31° |
| 2026-04-30 10:17 | 40.18790 | 147.78236 | 41287 ft | 563 kts | 31° |
| 2026-04-30 10:18 | 40.24418 | 147.85378 | 41287 ft | 564 kts | 31° |
| 2026-04-30 10:19 | 40.32810 | 147.96067 | 41285 ft | 561 kts | 31° |
| 2026-04-30 10:19 | 40.38406 | 148.03220 | 41284 ft | 560 kts | 31° |
| 2026-04-30 10:20 | 40.43988 | 148.10365 | 41318 ft | 560 kts | 31° |
| 2026-04-30 10:20 | 40.52324 | 148.21077 | 41284 ft | 557 kts | 31° |
| 2026-04-30 10:21 | 40.57821 | 148.28157 | 41290 ft | 556 kts | 31° |
| 2026-04-30 10:21 | 40.63343 | 148.35288 | 41287 ft | 555 kts | 31° |
| 2026-04-30 10:22 | 40.68862 | 148.42435 | 41281 ft | 554 kts | 31° |
| 2026-04-30 10:22 | 40.74321 | 148.49518 | 41323 ft | 554 kts | 31° |
| 2026-04-30 10:23 | 40.79803 | 148.56653 | 41278 ft | 552 kts | 31° |
| 2026-04-30 10:23 | 40.85274 | 148.63789 | 41278 ft | 551 kts | 31° |
| 2026-04-30 10:24 | 40.90731 | 148.70921 | 41323 ft | 551 kts | 31° |
| 2026-04-30 10:24 | 40.96158 | 148.78041 | 41273 ft | 548 kts | 31° |
| 2026-04-30 10:25 | 41.01528 | 148.85095 | 41278 ft | 547 kts | 31° |
| 2026-04-30 10:25 | 41.06928 | 148.92203 | 41273 ft | 547 kts | 31° |
| 2026-04-30 10:26 | 41.12335 | 148.99346 | 41276 ft | 548 kts | 31° |
| 2026-04-30 10:26 | 41.17730 | 149.06491 | 41271 ft | 548 kts | 31° |
| 2026-04-30 10:27 | 41.23088 | 149.13606 | 41282 ft | 546 kts | 32° |
| 2026-04-30 10:27 | 41.28436 | 149.20734 | 41270 ft | 544 kts | 32° |
| 2026-04-30 10:28 | 41.33781 | 149.27864 | 41267 ft | 543 kts | 32° |
| 2026-04-30 10:28 | 41.39122 | 149.35005 | 41270 ft | 542 kts | 33° |
| 2026-04-30 10:29 | 41.44428 | 149.42125 | 41272 ft | 540 kts | 33° |
| 2026-04-30 10:29 | 41.49680 | 149.49185 | 41270 ft | 540 kts | 33° |
| 2026-04-30 10:30 | 41.54971 | 149.56315 | 41272 ft | 538 kts | 34° |
| 2026-04-30 10:30 | 41.60236 | 149.63430 | 41267 ft | 537 kts | 34° |
| 2026-04-30 10:31 | 41.65482 | 149.70530 | 41265 ft | 537 kts | 34° |
| 2026-04-30 10:31 | 41.70717 | 149.77638 | 41270 ft | 535 kts | 34° |
| 2026-04-30 10:32 | 41.75898 | 149.84691 | 41265 ft | 534 kts | 34° |
| 2026-04-30 10:32 | 41.81104 | 149.91792 | 41262 ft | 534 kts | 34° |
| 2026-04-30 10:33 | 41.86308 | 149.98910 | 41272 ft | 532 kts | 34° |
| 2026-04-30 10:33 | 41.91479 | 150.06003 | 41266 ft | 531 kts | 34° |
| 2026-04-30 10:34 | 41.95778 | 150.11910 | 41263 ft | 531 kts | 34° |
| 2026-04-30 10:34 | 42.00941 | 150.19019 | 41266 ft | 530 kts | 35° |
| 2026-04-30 10:35 | 42.06090 | 150.26129 | 41262 ft | 530 kts | 35° |
| 2026-04-30 10:35 | 42.11230 | 150.33242 | 41260 ft | 530 kts | 35° |
| 2026-04-30 10:36 | 42.16359 | 150.40358 | 41267 ft | 529 kts | 35° |
| 2026-04-30 10:36 | 42.21485 | 150.47491 | 41264 ft | 528 kts | 35° |
| 2026-04-30 10:37 | 42.26567 | 150.54577 | 41261 ft | 528 kts | 35° |
| 2026-04-30 10:37 | 42.31675 | 150.61717 | 41262 ft | 527 kts | 35° |
| 2026-04-30 10:38 | 42.36775 | 150.68865 | 41259 ft | 527 kts | 36° |
| 2026-04-30 10:38 | 42.41859 | 150.76006 | 41263 ft | 527 kts | 36° |
| 2026-04-30 10:39 | 42.46945 | 150.83168 | 41276 ft | 527 kts | 36° |
| 2026-04-30 10:39 | 42.52013 | 150.90327 | 41259 ft | 526 kts | 36° |
| 2026-04-30 10:40 | 42.57052 | 150.97460 | 41261 ft | 525 kts | 36° |
| 2026-04-30 10:40 | 42.62108 | 151.04634 | 41259 ft | 525 kts | 36° |
| 2026-04-30 10:41 | 42.67159 | 151.11817 | 41259 ft | 525 kts | 36° |
| 2026-04-30 10:41 | 42.72177 | 151.18974 | 41259 ft | 525 kts | 36° |
| 2026-04-30 10:42 | 42.77219 | 151.26182 | 41283 ft | 526 kts | 36° |
| 2026-04-30 10:42 | 42.82257 | 151.33405 | 41260 ft | 525 kts | 36° |
| 2026-04-30 10:43 | 42.87282 | 151.40628 | 41260 ft | 524 kts | 37° |
| 2026-04-30 10:43 | 42.92291 | 151.47845 | 41260 ft | 524 kts | 37° |
| 2026-04-30 10:44 | 42.97288 | 151.55063 | 41257 ft | 522 kts | 37° |
| 2026-04-30 10:44 | 43.02247 | 151.62243 | 41260 ft | 521 kts | 37° |
| 2026-04-30 10:45 | 43.07226 | 151.69469 | 41260 ft | 521 kts | 37° |
| 2026-04-30 10:45 | 43.12197 | 151.76704 | 41258 ft | 520 kts | 37° |
| 2026-04-30 10:46 | 43.17117 | 151.83883 | 41278 ft | 520 kts | 37° |
| 2026-04-30 10:46 | 43.22053 | 151.91103 | 41258 ft | 519 kts | 37° |
| 2026-04-30 10:47 | 43.26990 | 151.98341 | 41263 ft | 518 kts | 37° |
| 2026-04-30 10:47 | 43.31907 | 152.05570 | 41254 ft | 518 kts | 37° |
| 2026-04-30 10:48 | 43.36832 | 152.12828 | 41254 ft | 518 kts | 37° |
| 2026-04-30 10:48 | 43.41752 | 152.20098 | 41269 ft | 518 kts | 38° |
| 2026-04-30 10:49 | 43.46622 | 152.27313 | 41249 ft | 518 kts | 38° |
| 2026-04-30 10:49 | 43.51525 | 152.34594 | 41251 ft | 518 kts | 38° |
| 2026-04-30 10:50 | 43.56424 | 152.41890 | 41253 ft | 517 kts | 38° |
| 2026-04-30 10:50 | 43.61310 | 152.49184 | 41247 ft | 517 kts | 38° |
| 2026-04-30 10:51 | 43.66157 | 152.56439 | 41250 ft | 517 kts | 38° |
| 2026-04-30 10:51 | 43.71025 | 152.63744 | 41249 ft | 517 kts | 38° |
| 2026-04-30 10:52 | 43.75892 | 152.71065 | 41249 ft | 517 kts | 39° |
| 2026-04-30 10:52 | 43.80752 | 152.78394 | 41241 ft | 517 kts | 39° |
| 2026-04-30 10:53 | 43.85618 | 152.85754 | 41244 ft | 517 kts | 39° |
| 2026-04-30 10:53 | 43.90479 | 152.93124 | 41263 ft | 517 kts | 39° |
| 2026-04-30 10:54 | 43.95298 | 153.00450 | 41236 ft | 518 kts | 39° |
| 2026-04-30 10:54 | 44.00149 | 153.07843 | 41236 ft | 518 kts | 39° |
| 2026-04-30 10:55 | 44.05002 | 153.15260 | 41237 ft | 518 kts | 39° |
| 2026-04-30 10:55 | 44.09848 | 153.22685 | 41237 ft | 518 kts | 39° |
| 2026-04-30 10:56 | 44.14684 | 153.30115 | 41238 ft | 518 kts | 40° |
| 2026-04-30 10:56 | 44.19514 | 153.37555 | 41230 ft | 517 kts | 40° |
| 2026-04-30 10:57 | 44.24308 | 153.44959 | 41240 ft | 517 kts | 40° |
| 2026-04-30 10:57 | 44.29121 | 153.52411 | 41235 ft | 517 kts | 40° |
| 2026-04-30 10:58 | 44.33930 | 153.59876 | 41218 ft | 517 kts | 40° |
| 2026-04-30 10:58 | 44.38743 | 153.67366 | 41248 ft | 517 kts | 40° |
| 2026-04-30 10:59 | 44.43550 | 153.74868 | 41225 ft | 517 kts | 40° |
| 2026-04-30 10:59 | 44.48342 | 153.82368 | 41222 ft | 517 kts | 40° |
| 2026-04-30 11:00 | 44.53105 | 153.89843 | 41224 ft | 517 kts | 40° |
| 2026-04-30 11:00 | 44.57891 | 153.97373 | 41220 ft | 516 kts | 41° |
| 2026-04-30 11:01 | 44.62662 | 154.04900 | 41216 ft | 516 kts | 41° |
| 2026-04-30 11:01 | 44.67434 | 154.12446 | 41208 ft | 516 kts | 41° |
| 2026-04-30 11:02 | 44.72200 | 154.20005 | 41222 ft | 516 kts | 41° |
| 2026-04-30 11:02 | 44.76939 | 154.27541 | 41213 ft | 516 kts | 41° |
| 2026-04-30 11:03 | 44.81704 | 154.35141 | 41206 ft | 516 kts | 41° |
| 2026-04-30 11:04 | 44.88788 | 154.46521 | 41217 ft | 516 kts | 42° |
| 2026-04-30 11:04 | 44.93458 | 154.54222 | 41194 ft | 516 kts | 43° |
| 2026-04-30 11:05 | 44.98117 | 154.61944 | 41188 ft | 516 kts | 43° |
| 2026-04-30 11:05 | 45.02750 | 154.69620 | 41187 ft | 516 kts | 43° |
| 2026-04-30 11:06 | 45.07412 | 154.77354 | 41181 ft | 516 kts | 43° |
| 2026-04-30 11:06 | 45.12062 | 154.85084 | 41178 ft | 516 kts | 43° |
| 2026-04-30 11:07 | 45.16710 | 154.92833 | 41173 ft | 516 kts | 43° |
| 2026-04-30 11:07 | 45.21361 | 155.00609 | 41185 ft | 516 kts | 43° |
| 2026-04-30 11:08 | 45.25965 | 155.08330 | 41167 ft | 515 kts | 43° |
| 2026-04-30 11:08 | 45.30585 | 155.16098 | 41162 ft | 515 kts | 43° |
| 2026-04-30 11:09 | 45.35209 | 155.23894 | 41162 ft | 515 kts | 43° |
| 2026-04-30 11:09 | 45.39824 | 155.31695 | 41162 ft | 515 kts | 43° |
| 2026-04-30 11:10 | 45.44434 | 155.39511 | 41151 ft | 515 kts | 43° |
| 2026-04-30 11:10 | 45.49039 | 155.47340 | 41148 ft | 516 kts | 43° |
| 2026-04-30 11:11 | 45.53624 | 155.55158 | 41165 ft | 516 kts | 44° |
| 2026-04-30 11:11 | 45.58219 | 155.63014 | 41141 ft | 515 kts | 44° |
| 2026-04-30 11:12 | 45.62813 | 155.70890 | 41138 ft | 515 kts | 44° |
| 2026-04-30 11:12 | 45.67392 | 155.78764 | 41139 ft | 515 kts | 44° |
| 2026-04-30 11:13 | 45.71955 | 155.86631 | 41130 ft | 515 kts | 44° |
| 2026-04-30 11:13 | 45.76533 | 155.94545 | 41126 ft | 515 kts | 44° |
| 2026-04-30 11:14 | 45.81111 | 156.02483 | 41133 ft | 515 kts | 44° |
| 2026-04-30 11:14 | 45.85675 | 156.10421 | 41122 ft | 515 kts | 44° |
| 2026-04-30 11:15 | 45.90204 | 156.18318 | 41121 ft | 516 kts | 44° |
| 2026-04-30 11:15 | 45.94755 | 156.26277 | 41123 ft | 515 kts | 44° |
| 2026-04-30 11:16 | 45.99304 | 156.34256 | 41110 ft | 515 kts | 44° |
| 2026-04-30 11:16 | 46.03850 | 156.42249 | 41106 ft | 515 kts | 45° |
| 2026-04-30 11:17 | 46.08381 | 156.50242 | 41100 ft | 515 kts | 45° |
| 2026-04-30 11:17 | 46.12883 | 156.58207 | 41099 ft | 515 kts | 45° |
| 2026-04-30 11:18 | 46.17404 | 156.66229 | 41091 ft | 515 kts | 45° |
| 2026-04-30 11:18 | 46.24190 | 156.78308 | 41086 ft | 516 kts | 45° |
| 2026-04-30 11:19 | 46.28703 | 156.86374 | 41078 ft | 516 kts | 45° |
| 2026-04-30 11:19 | 46.33207 | 156.94447 | 41078 ft | 515 kts | 45° |
| 2026-04-30 11:20 | 46.36949 | 157.01169 | 41075 ft | 515 kts | 45° |
| 2026-04-30 11:20 | 46.41444 | 157.09268 | 41064 ft | 516 kts | 46° |
| 2026-04-30 11:21 | 46.46669 | 157.18714 | 41064 ft | 516 kts | 46° |
| 2026-04-30 11:21 | 46.50424 | 157.25521 | 41056 ft | 516 kts | 46° |
| 2026-04-30 11:22 | 46.54904 | 157.33662 | 41054 ft | 516 kts | 46° |
| 2026-04-30 11:22 | 46.60104 | 157.43145 | 41067 ft | 516 kts | 46° |
| 2026-04-30 11:23 | 46.63821 | 157.49943 | 41045 ft | 515 kts | 46° |
| 2026-04-30 11:24 | 46.70510 | 157.62217 | 41034 ft | 515 kts | 46° |
| 2026-04-30 11:24 | 46.74958 | 157.70410 | 41024 ft | 515 kts | 47° |
| 2026-04-30 11:25 | 46.81630 | 157.82747 | 41019 ft | 516 kts | 47° |
| 2026-04-30 11:26 | 46.90472 | 157.99176 | 41010 ft | 516 kts | 47° |
| 2026-04-30 11:26 | 46.94908 | 158.07459 | 41012 ft | 516 kts | 47° |
| 2026-04-30 11:27 | 46.99335 | 158.15749 | 41001 ft | 516 kts | 47° |
| 2026-04-30 11:27 | 47.03748 | 158.24035 | 40997 ft | 515 kts | 47° |
| 2026-04-30 11:28 | 47.10328 | 158.36439 | 40989 ft | 516 kts | 48° |
| 2026-04-30 11:29 | 47.14727 | 158.44764 | 40986 ft | 516 kts | 48° |
| 2026-04-30 11:29 | 47.21322 | 158.57290 | 40978 ft | 516 kts | 48° |
| 2026-04-30 11:30 | 47.27901 | 158.69844 | 40969 ft | 516 kts | 48° |
| 2026-04-30 11:31 | 47.32286 | 158.78243 | 40968 ft | 516 kts | 48° |
| 2026-04-30 11:31 | 47.36657 | 158.86641 | 40964 ft | 516 kts | 49° |
| 2026-04-30 11:32 | 47.41003 | 158.95015 | 40960 ft | 517 kts | 49° |
| 2026-04-30 11:32 | 47.45368 | 159.03453 | 40961 ft | 517 kts | 49° |
| 2026-04-30 11:33 | 47.51902 | 159.16134 | 40953 ft | 517 kts | 49° |
| 2026-04-30 11:33 | 47.56251 | 159.24605 | 40946 ft | 517 kts | 49° |
| 2026-04-30 11:34 | 47.60598 | 159.33099 | 40939 ft | 517 kts | 49° |
| 2026-04-30 11:34 | 47.64940 | 159.41611 | 40938 ft | 517 kts | 49° |
| 2026-04-30 11:35 | 47.69246 | 159.50075 | 40934 ft | 516 kts | 49° |
| 2026-04-30 11:35 | 47.73568 | 159.58600 | 40931 ft | 516 kts | 49° |
| 2026-04-30 11:36 | 47.77864 | 159.67101 | 40925 ft | 516 kts | 49° |
| 2026-04-30 11:36 | 47.82181 | 159.75668 | 40921 ft | 516 kts | 49° |
| 2026-04-30 11:37 | 47.86487 | 159.84240 | 40916 ft | 516 kts | 50° |
| 2026-04-30 11:37 | 47.90760 | 159.92776 | 40914 ft | 516 kts | 50° |
| 2026-04-30 11:38 | 47.95053 | 160.01376 | 40917 ft | 516 kts | 50° |
| 2026-04-30 11:38 | 47.99335 | 160.09982 | 40912 ft | 516 kts | 50° |
| 2026-04-30 11:39 | 48.03614 | 160.18609 | 40909 ft | 516 kts | 50° |
| 2026-04-30 11:39 | 48.07882 | 160.27242 | 40900 ft | 516 kts | 50° |
| 2026-04-30 11:40 | 48.12114 | 160.35829 | 40902 ft | 516 kts | 50° |
| 2026-04-30 11:40 | 48.16395 | 160.44543 | 40905 ft | 516 kts | 50° |
| 2026-04-30 11:41 | 48.20628 | 160.53185 | 40889 ft | 516 kts | 51° |
| 2026-04-30 11:41 | 48.24847 | 160.61829 | 40889 ft | 516 kts | 51° |
| 2026-04-30 11:42 | 48.29080 | 160.70541 | 40884 ft | 516 kts | 51° |
| 2026-04-30 11:42 | 48.33200 | 160.79404 | 40877 ft | 517 kts | 52° |
| 2026-04-30 11:43 | 48.37265 | 160.88336 | 40883 ft | 517 kts | 52° |
| 2026-04-30 11:43 | 48.41328 | 160.97249 | 40871 ft | 516 kts | 52° |
| 2026-04-30 11:44 | 48.45404 | 161.06173 | 40869 ft | 516 kts | 52° |
| 2026-04-30 11:44 | 48.49469 | 161.15086 | 40868 ft | 516 kts | 52° |
| 2026-04-30 11:45 | 48.53511 | 161.23979 | 40865 ft | 516 kts | 53° |
| 2026-04-30 11:45 | 48.57570 | 161.32942 | 40856 ft | 516 kts | 53° |
| 2026-04-30 11:46 | 48.61622 | 161.41917 | 40856 ft | 516 kts | 53° |
| 2026-04-30 11:46 | 48.65638 | 161.50844 | 40855 ft | 517 kts | 53° |
| 2026-04-30 11:47 | 48.69675 | 161.59848 | 40854 ft | 517 kts | 53° |
| 2026-04-30 11:47 | 48.73707 | 161.68871 | 40849 ft | 516 kts | 53° |
| 2026-04-30 11:48 | 48.77729 | 161.77902 | 40840 ft | 516 kts | 53° |
| 2026-04-30 11:48 | 48.81719 | 161.86889 | 40841 ft | 516 kts | 53° |
| 2026-04-30 11:49 | 48.85730 | 161.95958 | 40837 ft | 516 kts | 53° |
| 2026-04-30 11:49 | 48.89728 | 162.05025 | 40831 ft | 516 kts | 53° |
| 2026-04-30 11:50 | 48.93719 | 162.14107 | 40832 ft | 516 kts | 53° |
| 2026-04-30 11:50 | 48.97700 | 162.23197 | 40824 ft | 516 kts | 54° |
| 2026-04-30 11:51 | 49.01676 | 162.32307 | 40826 ft | 516 kts | 54° |
| 2026-04-30 11:51 | 49.05621 | 162.41377 | 40825 ft | 516 kts | 54° |
| 2026-04-30 11:52 | 49.09583 | 162.50517 | 40821 ft | 516 kts | 54° |
| 2026-04-30 11:52 | 49.13541 | 162.59678 | 40820 ft | 516 kts | 54° |
| 2026-04-30 11:53 | 49.17460 | 162.68781 | 40813 ft | 515 kts | 54° |
| 2026-04-30 11:53 | 49.21395 | 162.77952 | 40811 ft | 515 kts | 54° |
| 2026-04-30 11:54 | 49.25321 | 162.87135 | 40814 ft | 516 kts | 54° |
| 2026-04-30 11:54 | 49.29251 | 162.96357 | 40804 ft | 516 kts | 54° |
| 2026-04-30 11:55 | 49.33164 | 163.05570 | 40798 ft | 516 kts | 54° |
| 2026-04-30 11:55 | 49.37047 | 163.14747 | 40801 ft | 516 kts | 54° |
| 2026-04-30 11:56 | 49.40945 | 163.23990 | 40796 ft | 516 kts | 55° |
| 2026-04-30 11:56 | 49.44835 | 163.33246 | 40798 ft | 516 kts | 55° |
| 2026-04-30 11:57 | 49.48716 | 163.42514 | 40790 ft | 515 kts | 55° |
| 2026-04-30 11:57 | 49.52597 | 163.51813 | 40785 ft | 515 kts | 55° |
| 2026-04-30 11:58 | 49.56462 | 163.61108 | 40782 ft | 515 kts | 55° |
| 2026-04-30 11:58 | 49.60332 | 163.70445 | 40780 ft | 515 kts | 55° |
| 2026-04-30 11:59 | 49.64167 | 163.79733 | 40776 ft | 515 kts | 55° |
| 2026-04-30 11:59 | 49.68014 | 163.89082 | 40758 ft | 516 kts | 56° |
| 2026-04-30 12:00 | 49.71854 | 163.98447 | 40771 ft | 515 kts | 56° |
| 2026-04-30 12:00 | 49.75666 | 164.07776 | 40776 ft | 516 kts | 56° |
| 2026-04-30 12:01 | 49.79496 | 164.17182 | 40764 ft | 516 kts | 56° |
| 2026-04-30 12:01 | 49.83312 | 164.26589 | 40766 ft | 515 kts | 56° |
| 2026-04-30 12:02 | 49.87116 | 164.35998 | 40759 ft | 515 kts | 56° |
| 2026-04-30 12:02 | 49.90919 | 164.45439 | 40744 ft | 515 kts | 56° |
| 2026-04-30 12:03 | 49.96585 | 164.59569 | 40746 ft | 516 kts | 56° |
| 2026-04-30 12:04 | 50.00374 | 164.69062 | 40747 ft | 516 kts | 56° |
| 2026-04-30 12:04 | 50.04125 | 164.78490 | 40738 ft | 516 kts | 56° |
| 2026-04-30 12:05 | 50.07899 | 164.88013 | 40733 ft | 517 kts | 56° |
| 2026-04-30 12:05 | 50.11666 | 164.97552 | 40726 ft | 517 kts | 56° |
| 2026-04-30 12:06 | 50.15421 | 165.07096 | 40725 ft | 516 kts | 57° |
| 2026-04-30 12:06 | 50.19164 | 165.16662 | 40722 ft | 516 kts | 57° |
| 2026-04-30 12:07 | 50.22866 | 165.26284 | 40713 ft | 517 kts | 57° |
| 2026-04-30 12:07 | 50.26525 | 165.35865 | 40717 ft | 517 kts | 57° |
| 2026-04-30 12:08 | 50.30207 | 165.45524 | 40712 ft | 517 kts | 57° |
| 2026-04-30 12:08 | 50.33888 | 165.55202 | 40705 ft | 517 kts | 58° |
| 2026-04-30 12:09 | 50.36937 | 165.63240 | 40710 ft | 517 kts | 58° |
| 2026-04-30 12:09 | 50.40606 | 165.72949 | 40702 ft | 518 kts | 58° |
| 2026-04-30 12:10 | 50.44268 | 165.82678 | 40692 ft | 518 kts | 58° |
| 2026-04-30 12:10 | 50.47918 | 165.92412 | 40694 ft | 517 kts | 58° |
| 2026-04-30 12:11 | 50.51562 | 166.02165 | 40691 ft | 518 kts | 58° |
| 2026-04-30 12:11 | 50.55202 | 166.11944 | 40693 ft | 518 kts | 58° |
| 2026-04-30 12:12 | 50.58826 | 166.21719 | 40691 ft | 517 kts | 58° |
| 2026-04-30 12:12 | 50.62445 | 166.31516 | 40680 ft | 518 kts | 58° |
| 2026-04-30 12:13 | 50.66033 | 166.41264 | 40680 ft | 518 kts | 58° |
| 2026-04-30 12:13 | 50.69637 | 166.51097 | 40679 ft | 517 kts | 58° |
| 2026-04-30 12:14 | 50.73235 | 166.60950 | 40679 ft | 518 kts | 59° |
| 2026-04-30 12:14 | 50.76823 | 166.70812 | 40673 ft | 517 kts | 59° |
| 2026-04-30 12:15 | 50.80373 | 166.80609 | 40666 ft | 517 kts | 59° |
| 2026-04-30 12:15 | 50.83954 | 166.90527 | 40666 ft | 519 kts | 59° |
| 2026-04-30 12:16 | 50.87527 | 167.00463 | 40658 ft | 518 kts | 59° |
| 2026-04-30 12:16 | 50.91083 | 167.10393 | 40651 ft | 518 kts | 59° |
| 2026-04-30 12:17 | 50.96413 | 167.25345 | 40653 ft | 518 kts | 59° |
| 2026-04-30 12:17 | 50.99917 | 167.35226 | 40648 ft | 517 kts | 59° |
| 2026-04-30 12:18 | 51.03440 | 167.45197 | 40639 ft | 517 kts | 59° |
| 2026-04-30 12:18 | 51.06951 | 167.55173 | 40644 ft | 517 kts | 60° |
| 2026-04-30 12:19 | 51.10454 | 167.65166 | 40641 ft | 516 kts | 60° |
| 2026-04-30 12:19 | 51.13920 | 167.75091 | 40638 ft | 516 kts | 60° |
| 2026-04-30 12:20 | 51.17399 | 167.85095 | 40633 ft | 516 kts | 60° |
| 2026-04-30 12:20 | 51.20876 | 167.95131 | 40632 ft | 515 kts | 60° |
| 2026-04-30 12:21 | 51.24336 | 168.05158 | 40632 ft | 515 kts | 60° |
| 2026-04-30 12:21 | 51.27782 | 168.15187 | 40627 ft | 515 kts | 60° |
| 2026-04-30 12:22 | 51.31209 | 168.25198 | 40626 ft | 515 kts | 60° |
| 2026-04-30 12:22 | 51.34642 | 168.35269 | 40621 ft | 515 kts | 60° |
| 2026-04-30 12:23 | 51.38072 | 168.45368 | 40618 ft | 515 kts | 61° |
| 2026-04-30 12:23 | 51.41489 | 168.55470 | 40616 ft | 515 kts | 61° |
| 2026-04-30 12:24 | 51.44874 | 168.65521 | 40615 ft | 515 kts | 61° |
| 2026-04-30 12:24 | 51.48270 | 168.75642 | 40616 ft | 516 kts | 61° |
| 2026-04-30 12:25 | 51.51666 | 168.85805 | 40618 ft | 516 kts | 61° |
| 2026-04-30 12:25 | 51.55029 | 168.95913 | 40610 ft | 515 kts | 62° |
| 2026-04-30 12:26 | 51.58396 | 169.06071 | 40606 ft | 515 kts | 62° |
| 2026-04-30 12:26 | 51.61755 | 169.16248 | 40604 ft | 515 kts | 62° |
| 2026-04-30 12:27 | 51.65106 | 169.26442 | 40598 ft | 515 kts | 62° |
| 2026-04-30 12:27 | 51.68451 | 169.36658 | 40602 ft | 515 kts | 62° |
| 2026-04-30 12:28 | 51.71784 | 169.46883 | 40602 ft | 515 kts | 62° |
| 2026-04-30 12:28 | 51.75115 | 169.57143 | 40601 ft | 515 kts | 62° |
| 2026-04-30 12:29 | 51.78407 | 169.67324 | 40598 ft | 515 kts | 62° |
| 2026-04-30 12:29 | 51.81726 | 169.77632 | 40591 ft | 515 kts | 62° |
| 2026-04-30 12:30 | 51.85021 | 169.87909 | 40607 ft | 515 kts | 63° |
| 2026-04-30 12:30 | 51.88310 | 169.98209 | 40584 ft | 515 kts | 63° |
| 2026-04-30 12:31 | 51.91564 | 170.08443 | 40579 ft | 515 kts | 63° |
| 2026-04-30 12:31 | 51.94835 | 170.18774 | 40596 ft | 514 kts | 63° |
| 2026-04-30 12:32 | 51.98098 | 170.29125 | 40596 ft | 515 kts | 63° |
| 2026-04-30 12:32 | 52.01349 | 170.39480 | 40596 ft | 515 kts | 63° |
| 2026-04-30 12:33 | 52.04593 | 170.49855 | 40592 ft | 515 kts | 63° |
| 2026-04-30 12:33 | 52.07811 | 170.60194 | 40589 ft | 515 kts | 63° |
| 2026-04-30 12:34 | 52.11070 | 170.70567 | 40590 ft | 515 kts | 60° |
| 2026-04-30 12:34 | 52.15296 | 170.79972 | 40593 ft | 514 kts | 50° |
| 2026-04-30 12:35 | 52.19933 | 170.88863 | 40581 ft | 514 kts | 49° |
| 2026-04-30 12:35 | 52.24593 | 170.97614 | 40593 ft | 514 kts | 49° |
| 2026-04-30 12:36 | 52.29272 | 171.06451 | 40590 ft | 514 kts | 49° |
| 2026-04-30 12:36 | 52.33938 | 171.15331 | 40588 ft | 514 kts | 49° |
| 2026-04-30 12:37 | 52.38594 | 171.24244 | 40583 ft | 514 kts | 49° |
| 2026-04-30 12:37 | 52.43234 | 171.33159 | 40582 ft | 514 kts | 49° |
| 2026-04-30 12:38 | 52.47840 | 171.42037 | 40581 ft | 514 kts | 50° |
| 2026-04-30 12:38 | 52.52468 | 171.50990 | 40574 ft | 514 kts | 50° |
| 2026-04-30 12:39 | 52.57088 | 171.59958 | 40586 ft | 514 kts | 50° |
| 2026-04-30 12:39 | 52.61701 | 171.68944 | 40585 ft | 514 kts | 50° |
| 2026-04-30 12:40 | 52.66309 | 171.77954 | 40587 ft | 514 kts | 50° |
| 2026-04-30 12:40 | 52.70916 | 171.86993 | 40587 ft | 514 kts | 50° |
| 2026-04-30 12:41 | 52.75478 | 171.95977 | 40591 ft | 514 kts | 50° |
| 2026-04-30 12:41 | 52.80071 | 172.05052 | 40589 ft | 514 kts | 50° |
| 2026-04-30 12:42 | 52.84652 | 172.14139 | 40577 ft | 514 kts | 50° |
| 2026-04-30 12:42 | 52.89227 | 172.23248 | 40588 ft | 514 kts | 50° |
| 2026-04-30 12:43 | 52.93760 | 172.32305 | 40587 ft | 514 kts | 50° |
| 2026-04-30 12:43 | 52.98317 | 172.41441 | 40583 ft | 514 kts | 51° |
| 2026-04-30 12:44 | 53.02874 | 172.50613 | 40591 ft | 514 kts | 51° |
| 2026-04-30 12:44 | 53.07421 | 172.59796 | 40584 ft | 514 kts | 51° |
| 2026-04-30 12:45 | 53.11935 | 172.68949 | 40578 ft | 514 kts | 51° |
| 2026-04-30 12:45 | 53.16459 | 172.78155 | 40582 ft | 514 kts | 51° |
| 2026-04-30 12:46 | 53.20984 | 172.87394 | 40586 ft | 514 kts | 51° |
| 2026-04-30 12:46 | 53.25497 | 172.96646 | 40592 ft | 514 kts | 51° |
| 2026-04-30 12:47 | 53.30005 | 173.05921 | 40600 ft | 514 kts | 51° |
| 2026-04-30 12:47 | 53.34476 | 173.15154 | 40595 ft | 514 kts | 51° |
| 2026-04-30 12:48 | 53.38967 | 173.24462 | 40595 ft | 513 kts | 51° |
| 2026-04-30 12:48 | 53.43453 | 173.33795 | 40584 ft | 514 kts | 51° |
| 2026-04-30 12:49 | 53.47931 | 173.43146 | 40589 ft | 514 kts | 52° |
| 2026-04-30 12:49 | 53.52374 | 173.52477 | 40584 ft | 514 kts | 52° |
| 2026-04-30 12:50 | 53.56388 | 173.62390 | 40596 ft | 513 kts | 57° |
| 2026-04-30 12:50 | 53.60259 | 173.72494 | 40581 ft | 513 kts | 58° |